Aviation Digital Data Service (ADDS)

Output produced by METARs form (1139 UTC 09 February 2016)
found at http://aviationweather.gov/adds/metars/
 
METAR text: GVAC 091100Z 08018KT 9000 FEW015 SCT100 BKN200 27/18 Q1020 NOSIG
Conditions at: GVAC (SAL ISL/AMILCAR , CV) observed 1100 UTC 09 February 2016
Temperature: 27.0°C (81°F)
Dewpoint: 18.0°C (64°F) [RH = 58%]
Pressure (altimeter): 30.12 inches Hg (1020.0 mb)
Winds: from the E (80 degrees) at 21 MPH (18 knots; 9.4 m/s)
Visibility: 6 miles (9 km)
Ceiling: 20000 feet AGL
Clouds: few clouds at 1500 feet AGL
scattered clouds at 10000 feet AGL
broken clouds at 20000 feet AGL
Weather: no significant weather observed at this time

METAR text: GVAC 091000Z 07016KT 9000 SCT015 SCT100 BKN200 26/18 Q1020 NOSIG
Conditions at: GVAC (SAL ISL/AMILCAR , CV) observed 1000 UTC 09 February 2016
Temperature: 26.0°C (79°F)
Dewpoint: 18.0°C (64°F) [RH = 61%]
Pressure (altimeter): 30.12 inches Hg (1020.0 mb)
Winds: from the ENE (70 degrees) at 18 MPH (16 knots; 8.3 m/s)
Visibility: 6 miles (9 km)
Ceiling: 20000 feet AGL
Clouds: scattered clouds at 1500 feet AGL
scattered clouds at 10000 feet AGL
broken clouds at 20000 feet AGL
Weather: no significant weather observed at this time

METAR text: GVAC 090900Z 07014KT 9000 SCT015 SCT100 BKN200 23/18 Q1019 NOSIG
Conditions at: GVAC (SAL ISL/AMILCAR , CV) observed 0900 UTC 09 February 2016
Temperature: 23.0°C (73°F)
Dewpoint: 18.0°C (64°F) [RH = 73%]
Pressure (altimeter): 30.09 inches Hg (1019.0 mb)
Winds: from the ENE (70 degrees) at 16 MPH (14 knots; 7.3 m/s)
Visibility: 6 miles (9 km)
Ceiling: 20000 feet AGL
Clouds: scattered clouds at 1500 feet AGL
scattered clouds at 10000 feet AGL
broken clouds at 20000 feet AGL
Weather: no significant weather observed at this time

METAR text: GVAC 090800Z 07011KT 9000 FEW015 BKN200 23/18 Q1019 NOSIG
Conditions at: GVAC (SAL ISL/AMILCAR , CV) observed 0800 UTC 09 February 2016
Temperature: 23.0°C (73°F)
Dewpoint: 18.0°C (64°F) [RH = 73%]
Pressure (altimeter): 30.09 inches Hg (1019.0 mb)
Winds: from the ENE (70 degrees) at 13 MPH (11 knots; 5.7 m/s)
Visibility: 6 miles (9 km)
Ceiling: 20000 feet AGL
Clouds: few clouds at 1500 feet AGL
broken clouds at 20000 feet AGL
Weather: no significant weather observed at this time

METAR text: GVAC 090700Z 08014KT 8000 FEW015 BKN200 23/18 Q1018 NOSIG
Conditions at: GVAC (SAL ISL/AMILCAR , CV) observed 0700 UTC 09 February 2016
Temperature: 23.0°C (73°F)
Dewpoint: 18.0°C (64°F) [RH = 73%]
Pressure (altimeter): 30.06 inches Hg (1018.0 mb)
Winds: from the E (80 degrees) at 16 MPH (14 knots; 7.3 m/s)
Visibility: 5 miles (8 km)
Ceiling: 20000 feet AGL
Clouds: few clouds at 1500 feet AGL
broken clouds at 20000 feet AGL
Weather: no significant weather observed at this time

METAR text: GVAC 090600Z 08013KT 8000 FEW015 SCT100 BKN200 23/17 Q1017 NOSIG
Conditions at: GVAC (SAL ISL/AMILCAR , CV) observed 0600 UTC 09 February 2016
Temperature: 23.0°C (73°F)
Dewpoint: 17.0°C (63°F) [RH = 69%]
Pressure (altimeter): 30.03 inches Hg (1017.0 mb)
Winds: from the E (80 degrees) at 15 MPH (13 knots; 6.8 m/s)
Visibility: 5 miles (8 km)
Ceiling: 20000 feet AGL
Clouds: few clouds at 1500 feet AGL
scattered clouds at 10000 feet AGL
broken clouds at 20000 feet AGL
Weather: no significant weather observed at this time

METAR text: GVAC 090500Z 08013KT 8000 FEW015 SCT100 BKN200 23/18 Q1017 NOSIG
Conditions at: GVAC (SAL ISL/AMILCAR , CV) observed 0500 UTC 09 February 2016
Temperature: 23.0°C (73°F)
Dewpoint: 18.0°C (64°F) [RH = 73%]
Pressure (altimeter): 30.03 inches Hg (1017.0 mb)
Winds: from the E (80 degrees) at 15 MPH (13 knots; 6.8 m/s)
Visibility: 5 miles (8 km)
Ceiling: 20000 feet AGL
Clouds: few clouds at 1500 feet AGL
scattered clouds at 10000 feet AGL
broken clouds at 20000 feet AGL
Weather: no significant weather observed at this time

METAR text: GVAC 090400Z 08013KT 8000 FEW015 SCT100 BKN200 23/18 Q1017 NOSIG
Conditions at: GVAC (SAL ISL/AMILCAR , CV) observed 0400 UTC 09 February 2016
Temperature: 23.0°C (73°F)
Dewpoint: 18.0°C (64°F) [RH = 73%]
Pressure (altimeter): 30.03 inches Hg (1017.0 mb)
Winds: from the E (80 degrees) at 15 MPH (13 knots; 6.8 m/s)
Visibility: 5 miles (8 km)
Ceiling: 20000 feet AGL
Clouds: few clouds at 1500 feet AGL
scattered clouds at 10000 feet AGL
broken clouds at 20000 feet AGL
Weather: no significant weather observed at this time

METAR text: GVAC 090300Z 08014KT 8000 FEW015 SCT100 BKN200 23/18 Q1018 NOSIG
Conditions at: GVAC (SAL ISL/AMILCAR , CV) observed 0300 UTC 09 February 2016
Temperature: 23.0°C (73°F)
Dewpoint: 18.0°C (64°F) [RH = 73%]
Pressure (altimeter): 30.06 inches Hg (1018.0 mb)
Winds: from the E (80 degrees) at 16 MPH (14 knots; 7.3 m/s)
Visibility: 5 miles (8 km)
Ceiling: 20000 feet AGL
Clouds: few clouds at 1500 feet AGL
scattered clouds at 10000 feet AGL
broken clouds at 20000 feet AGL
Weather: no significant weather observed at this time

METAR text: GVAC 090200Z 07013KT 8000 FEW015 SCT100 BKN200 23/18 Q1018 NOSIG
Conditions at: GVAC (SAL ISL/AMILCAR , CV) observed 0200 UTC 09 February 2016
Temperature: 23.0°C (73°F)
Dewpoint: 18.0°C (64°F) [RH = 73%]
Pressure (altimeter): 30.06 inches Hg (1018.0 mb)
Winds: from the ENE (70 degrees) at 15 MPH (13 knots; 6.8 m/s)
Visibility: 5 miles (8 km)
Ceiling: 20000 feet AGL
Clouds: few clouds at 1500 feet AGL
scattered clouds at 10000 feet AGL
broken clouds at 20000 feet AGL
Weather: no significant weather observed at this time

METAR text: GVAC 090100Z 08012KT 8000 FEW015 SCT100 BKN200 23/18 Q1018 NOSIG
Conditions at: GVAC (SAL ISL/AMILCAR , CV) observed 0100 UTC 09 February 2016
Temperature: 23.0°C (73°F)
Dewpoint: 18.0°C (64°F) [RH = 73%]
Pressure (altimeter): 30.06 inches Hg (1018.0 mb)
Winds: from the E (80 degrees) at 14 MPH (12 knots; 6.2 m/s)
Visibility: 5 miles (8 km)
Ceiling: 20000 feet AGL
Clouds: few clouds at 1500 feet AGL
scattered clouds at 10000 feet AGL
broken clouds at 20000 feet AGL
Weather: no significant weather observed at this time